Time;durP1;ratioP1;P1;durP2;ratioP2;P2;SDS_P1;SDS_P2;PMS_P1;PMS_P2;Temp;Humidity;BMP_temperature;BMP_pressure;BME280_temperature;BME280_humidity;BME280_pressure;Samples;Min_cycle;Max_cycle;Signal;HPM_P1;HPM_P2
2023/01/05 00:01:29;;;;;;;0.83;0.70;;;11.00;99.90;;;;;;5055916;28;20216;-72
2023/01/05 00:03:55;;;;;;;1.07;0.87;;;11.00;99.90;;;;;;5034803;28;20451;-72
2023/01/05 00:06:21;;;;;;;0.70;0.70;;;11.00;99.90;;;;;;5051618;28;20226;-69
2023/01/05 00:08:50;;;;;;;0.53;0.53;;;11.00;99.90;;;;;;5031936;28;20279;-72
2023/01/05 00:22:29;;;;;;;0.53;0.50;;;11.10;99.90;;;;;;5043670;28;20469;-70
2023/01/05 00:25:02;;;;;;;0.67;0.50;;;11.10;99.90;;;;;;5042469;28;20508;-70
2023/01/05 00:27:29;;;;;;;0.70;0.70;;;11.20;99.90;;;;;;5038980;28;21027;-71
2023/01/05 00:29:55;;;;;;;0.70;0.63;;;11.10;99.90;;;;;;5060829;28;20456;-71
2023/01/05 00:32:21;;;;;;;1.47;0.73;;;11.10;99.90;;;;;;5064721;28;20992;-71
2023/01/05 00:34:47;;;;;;;0.67;0.67;;;11.10;99.90;;;;;;5043570;28;20462;-71
2023/01/05 00:37:12;;;;;;;0.60;0.60;;;11.20;99.90;;;;;;5031361;28;20212;-71
2023/01/05 00:39:38;;;;;;;0.40;0.40;;;11.20;99.90;;;;;;5046743;28;20236;-71
2023/01/05 00:42:04;;;;;;;0.60;0.60;;;11.20;99.90;;;;;;5047435;28;20256;-71
2023/01/05 00:44:29;;;;;;;0.50;0.50;;;11.20;99.90;;;;;;5054877;28;20225;-69
2023/01/05 00:46:55;;;;;;;0.67;0.57;;;11.30;99.90;;;;;;5061321;28;20272;-71
2023/01/05 00:49:21;;;;;;;0.73;0.70;;;11.30;99.90;;;;;;5046793;28;20229;-70
2023/01/05 00:51:46;;;;;;;1.47;0.43;;;11.30;99.90;;;;;;5030890;28;20222;-71
2023/01/05 00:54:12;;;;;;;0.40;0.40;;;11.30;99.90;;;;;;5056707;28;20227;-69
2023/01/05 00:56:38;;;;;;;0.50;0.50;;;11.30;99.90;;;;;;5037610;28;20248;-72
2023/01/05 00:59:03;;;;;;;0.50;0.40;;;11.30;99.90;;;;;;5061698;28;20243;-69
2023/01/05 01:01:29;;;;;;;0.80;0.60;;;11.30;99.90;;;;;;5041158;28;20216;-71
2023/01/05 01:03:55;;;;;;;0.50;0.40;;;11.30;99.90;;;;;;5035693;28;20230;-70
2023/01/05 01:06:21;;;;;;;0.70;0.70;;;11.20;99.90;;;;;;5070155;28;20214;-73
2023/01/05 01:08:47;;;;;;;0.50;0.50;;;11.20;99.90;;;;;;5050297;28;20225;-72
2023/01/05 01:11:15;;;;;;;0.60;0.60;;;11.20;99.90;;;;;;5049519;28;20542;-72
2023/01/05 01:13:42;;;;;;;0.40;0.40;;;11.20;99.90;;;;;;5055707;28;20226;-72
2023/01/05 01:16:11;;;;;;;0.60;0.50;;;11.20;99.90;;;;;;5083071;28;20448;-72
2023/01/05 01:18:37;;;;;;;0.40;0.40;;;11.20;99.90;;;;;;5062403;28;20472;-72
2023/01/05 01:21:03;;;;;;;0.60;0.40;;;11.20;99.90;;;;;;5059880;28;20456;-73
2023/01/05 01:23:29;;;;;;;0.70;0.60;;;11.20;99.90;;;;;;5038821;28;20539;-72
2023/01/05 01:25:55;;;;;;;0.50;0.40;;;11.20;99.90;;;;;;5030006;28;20231;-72
2023/01/05 01:28:22;;;;;;;0.70;0.63;;;11.20;99.90;;;;;;5021557;28;20215;-73
2023/01/05 01:30:48;;;;;;;0.40;0.40;;;11.20;99.90;;;;;;5056929;28;20460;-72
2023/01/05 01:33:13;;;;;;;0.40;0.40;;;11.20;99.90;;;;;;5058063;28;20478;-72
2023/01/05 01:35:39;;;;;;;0.63;0.63;;;11.20;99.90;;;;;;5063042;28;20222;-72
2023/01/05 01:38:05;;;;;;;1.50;0.50;;;11.20;99.90;;;;;;5035686;28;20739;-71
2023/01/05 01:40:39;;;;;;;0.50;0.50;;;11.20;99.90;;;;;;5055637;28;20225;-72
2023/01/05 01:43:30;;;;;;;0.97;0.60;;;11.20;99.90;;;;;;5047662;28;20446;-72
2023/01/05 01:45:56;;;;;;;0.70;0.50;;;11.20;99.90;;;;;;5055886;28;20453;-72
2023/01/05 01:48:22;;;;;;;1.03;0.60;;;11.20;99.90;;;;;;5061777;28;20505;-72
2023/01/05 01:50:52;;;;;;;0.43;0.40;;;11.20;99.90;;;;;;5061216;28;20639;-72
2023/01/05 01:53:32;;;;;;;0.40;0.40;;;11.20;99.90;;;;;;5032501;28;20228;-72
2023/01/05 01:56:01;;;;;;;0.60;0.47;;;11.20;99.90;;;;;;5036992;28;20434;-72
2023/01/05 01:58:30;;;;;;;1.10;0.60;;;11.20;99.90;;;;;;5048705;28;20462;-72
2023/01/05 02:00:56;;;;;;;1.80;0.90;;;11.20;99.90;;;;;;5051278;28;20449;-73
2023/01/05 02:03:24;;;;;;;1.00;0.70;;;11.20;99.90;;;;;;5054029;28;20458;-72
2023/01/05 02:05:50;;;;;;;0.57;0.57;;;11.20;99.90;;;;;;5042715;28;20455;-72
2023/01/05 02:08:24;;;;;;;0.60;0.60;;;11.10;99.90;;;;;;5063372;28;20538;-73
2023/01/05 02:10:53;;;;;;;3.93;0.73;;;11.10;99.90;;;;;;5057981;28;20215;-72
2023/01/05 02:13:37;;;;;;;2.50;1.03;;;11.10;99.90;;;;;;5040189;28;20471;-72
2023/01/05 02:16:34;;;;;;;2.20;0.97;;;11.10;99.90;;;;;;5058219;28;20451;-71
2023/01/05 02:19:18;;;;;;;1.70;1.13;;;11.00;99.90;;;;;;5047538;28;20446;-72
2023/01/05 02:21:59;;;;;;;4.83;1.30;;;11.00;99.90;;;;;;5034357;28;20446;-71
2023/01/05 02:24:43;;;;;;;5.47;0.97;;;11.00;99.90;;;;;;5026655;28;20456;-71
2023/01/05 02:27:14;;;;;;;1.27;1.00;;;11.00;99.90;;;;;;5047465;28;20457;-72
2023/01/05 02:30:08;;;;;;;2.97;1.13;;;11.00;99.90;;;;;;5044754;28;20454;-70
2023/01/05 02:32:54;;;;;;;3.60;1.30;;;11.00;99.90;;;;;;5063295;28;20453;-71
2023/01/05 02:35:23;;;;;;;0.90;0.90;;;10.90;99.90;;;;;;5063816;28;20466;-71
2023/01/05 02:38:00;;;;;;;4.27;1.23;;;10.90;99.90;;;;;;5053652;28;20442;-71
2023/01/05 02:40:31;;;;;;;1.80;1.17;;;10.90;99.90;;;;;;5055651;28;20450;-71
2023/01/05 02:42:59;;;;;;;3.20;1.17;;;10.90;99.90;;;;;;5050101;28;20453;-71
2023/01/05 02:45:25;;;;;;;1.70;0.90;;;10.90;99.90;;;;;;5042242;28;20447;-70
2023/01/05 02:47:55;;;;;;;2.90;1.07;;;10.90;99.90;;;;;;5060624;28;20572;-71
2023/01/05 02:50:37;;;;;;;3.80;1.57;;;10.80;99.90;;;;;;5036930;28;20936;-70
2023/01/05 02:53:29;;;;;;;3.23;1.20;;;10.80;99.90;;;;;;5074934;28;20298;-71
2023/01/05 02:56:07;;;;;;;11.20;1.53;;;10.80;99.90;;;;;;5042155;28;20459;-72
2023/01/05 02:58:41;;;;;;;4.90;1.50;;;10.80;99.90;;;;;;5043537;28;20451;-70
2023/01/05 03:01:27;;;;;;;11.07;1.47;;;10.80;99.90;;;;;;5038529;28;20545;-70
2023/01/05 03:04:18;;;;;;;5.10;1.47;;;10.70;99.90;;;;;;5040063;28;20444;-72
2023/01/05 03:07:03;;;;;;;3.30;1.10;;;10.70;99.90;;;;;;5016798;28;20799;-72
2023/01/05 03:09:37;;;;;;;3.27;1.17;;;10.70;99.90;;;;;;5041509;28;20530;-72
2023/01/05 03:15:21;;;;;;;5.70;1.57;;;10.70;99.90;;;;;;5055701;28;20501;-72
2023/01/05 03:17:55;;;;;;;3.90;1.23;;;10.60;99.90;;;;;;5044682;28;20977;-72
2023/01/05 03:20:28;;;;;;;3.37;1.13;;;10.70;99.90;;;;;;5043128;28;20537;-73
2023/01/05 03:37:36;;;;;;;10.43;1.30;;;10.40;99.90;;;;;;5036995;28;20451;-72
2023/01/05 03:40:06;;;;;;;5.50;0.90;;;10.30;99.90;;;;;;5046392;28;20471;-72
2023/01/05 03:42:35;;;;;;;11.13;2.27;;;10.30;99.90;;;;;;5042968;28;20451;-73
2023/01/05 03:45:02;;;;;;;5.57;1.50;;;10.30;99.90;;;;;;5024346;28;20493;-71
2023/01/05 03:47:28;;;;;;;4.30;1.03;;;10.20;99.90;;;;;;5016261;28;20451;-73
2023/01/05 03:49:53;;;;;;;5.60;1.40;;;10.20;99.90;;;;;;5043977;28;20457;-72
2023/01/05 03:52:19;;;;;;;11.23;2.03;;;10.20;99.90;;;;;;5039744;28;20212;-73
2023/01/05 03:54:45;;;;;;;2.70;1.20;;;10.20;99.90;;;;;;5049760;28;20224;-73
2023/01/05 03:57:11;;;;;;;2.17;1.27;;;10.20;99.90;;;;;;5033457;28;20267;-73
2023/01/05 03:59:37;;;;;;;4.60;1.33;;;10.10;99.90;;;;;;5033286;28;20677;-72
2023/01/05 04:02:03;;;;;;;3.60;1.30;;;10.20;99.90;;;;;;5049381;28;20447;-72
2023/01/05 04:04:30;;;;;;;2.70;1.00;;;10.10;99.90;;;;;;5057335;28;20591;-72
2023/01/05 04:06:57;;;;;;;5.83;1.37;;;10.10;99.90;;;;;;5049208;28;20446;-72
2023/01/05 04:09:23;;;;;;;3.90;1.40;;;10.10;99.90;;;;;;5048627;28;21067;-73
2023/01/05 04:11:49;;;;;;;1.33;1.10;;;10.10;99.90;;;;;;5059323;28;20445;-72
2023/01/05 04:14:15;;;;;;;3.47;1.10;;;10.10;99.90;;;;;;5042989;28;20299;-72
2023/01/05 04:16:41;;;;;;;5.70;1.87;;;10.00;99.90;;;;;;5074386;28;20214;-71
2023/01/05 04:19:18;;;;;;;3.93;1.43;;;10.00;99.90;;;;;;5064345;28;20227;-72
2023/01/05 04:21:44;;;;;;;6.10;2.30;;;10.00;99.90;;;;;;5013103;28;20530;-73
2023/01/05 04:24:10;;;;;;;8.60;1.80;;;10.00;99.90;;;;;;5039646;28;20457;-73
2023/01/05 04:26:38;;;;;;;3.00;1.40;;;10.00;99.90;;;;;;5053770;28;20464;-72
2023/01/05 04:29:04;;;;;;;9.17;1.73;;;10.00;99.90;;;;;;5041429;28;20462;-73
2023/01/05 04:31:32;;;;;;;4.50;1.80;;;10.00;99.90;;;;;;5074189;28;20662;-72
2023/01/05 04:33:57;;;;;;;3.17;1.23;;;10.00;99.90;;;;;;5039582;28;20518;-72
2023/01/05 04:36:25;;;;;;;6.60;1.60;;;10.00;99.90;;;;;;5052999;28;20295;-72
2023/01/05 04:38:54;;;;;;;2.10;1.27;;;10.00;99.90;;;;;;5049987;28;20532;-73
2023/01/05 04:41:20;;;;;;;4.20;1.40;;;10.00;99.90;;;;;;5053400;28;20509;-73
2023/01/05 04:43:49;;;;;;;2.63;1.10;;;10.00;99.90;;;;;;5028185;28;20906;-73
2023/01/05 04:46:14;;;;;;;4.73;1.20;;;10.00;99.90;;;;;;5030694;28;20487;-73
2023/01/05 04:48:43;;;;;;;3.23;1.03;;;9.90;99.90;;;;;;5038506;28;20287;-73
2023/01/05 04:51:09;;;;;;;2.33;0.97;;;9.90;99.90;;;;;;5052189;28;20516;-73
2023/01/05 04:53:37;;;;;;;1.77;1.00;;;9.90;99.90;;;;;;5047436;28;20265;-74
2023/01/05 04:56:04;;;;;;;9.10;1.43;;;9.90;99.90;;;;;;5039994;28;20453;-72
2023/01/05 04:58:36;;;;;;;4.23;2.43;;;9.90;99.90;;;;;;5019173;28;20463;-73
2023/01/05 05:01:02;;;;;;;2.10;1.10;;;9.90;99.90;;;;;;5024112;28;20439;-73
2023/01/05 05:03:31;;;;;;;1.90;0.97;;;9.90;99.90;;;;;;5063740;28;20702;-74
2023/01/05 05:05:57;;;;;;;1.73;1.27;;;9.90;99.90;;;;;;5051393;28;20484;-74
2023/01/05 05:08:26;;;;;;;7.03;1.70;;;9.90;99.90;;;;;;5050750;28;20451;-74
2023/01/05 05:10:52;;;;;;;7.00;1.10;;;9.90;99.90;;;;;;5049373;28;20812;-74
2023/01/05 05:13:19;;;;;;;3.50;1.90;;;9.90;99.90;;;;;;5057372;28;20529;-74
2023/01/05 05:15:45;;;;;;;5.60;1.10;;;9.90;99.90;;;;;;5039234;28;20437;-73
2023/01/05 05:18:11;;;;;;;3.70;1.73;;;9.90;99.90;;;;;;5066491;28;20447;-74
2023/01/05 05:20:41;;;;;;;9.93;1.33;;;9.90;99.90;;;;;;5067675;28;20531;-74
2023/01/05 05:23:07;;;;;;;2.93;1.10;;;9.90;99.90;;;;;;5054750;28;20968;-74
2023/01/05 05:25:33;;;;;;;5.10;1.43;;;9.90;99.90;;;;;;5034294;28;20826;-73
2023/01/05 05:27:59;;;;;;;9.70;1.93;;;9.90;99.90;;;;;;5053881;28;20572;-74
2023/01/05 05:30:25;;;;;;;6.60;1.30;;;9.90;99.90;;;;;;5067580;28;20307;-73
2023/01/05 05:32:50;;;;;;;4.20;1.53;;;9.90;99.90;;;;;;5059612;28;20216;-73
2023/01/05 05:35:16;;;;;;;4.93;1.07;;;9.90;99.90;;;;;;5060365;28;20214;-73
2023/01/05 05:37:42;;;;;;;1.67;1.00;;;9.90;99.90;;;;;;5064986;28;20230;-74
2023/01/05 05:40:08;;;;;;;7.40;1.17;;;9.90;99.90;;;;;;5057230;28;20768;-71
2023/01/05 05:42:34;;;;;;;9.80;1.67;;;9.90;99.90;;;;;;5049872;28;20234;-73
2023/01/05 05:45:00;;;;;;;3.70;1.50;;;9.90;99.90;;;;;;5086606;28;20453;-74
2023/01/05 05:47:25;;;;;;;6.87;1.07;;;9.90;99.90;;;;;;5042773;28;20299;-73
2023/01/05 05:49:51;;;;;;;7.67;1.77;;;9.90;99.90;;;;;;5055407;28;20566;-74
2023/01/05 05:52:17;;;;;;;4.73;1.53;;;9.90;99.90;;;;;;5071033;28;20211;-73
2023/01/05 05:54:42;;;;;;;9.67;1.97;;;9.90;99.90;;;;;;5066003;28;20321;-73
2023/01/05 05:57:08;;;;;;;4.70;1.10;;;9.90;99.90;;;;;;5055745;28;20267;-73
2023/01/05 05:59:34;;;;;;;8.00;1.70;;;9.90;99.90;;;;;;5056853;28;20219;-74
2023/01/05 06:01:59;;;;;;;5.73;1.63;;;9.90;99.90;;;;;;5051353;28;20631;-73
2023/01/05 06:04:25;;;;;;;3.30;1.33;;;9.90;99.90;;;;;;5041877;28;20227;-72
2023/01/05 06:06:50;;;;;;;2.77;1.17;;;9.90;99.90;;;;;;5068131;28;20272;-73
2023/01/05 06:09:16;;;;;;;7.40;1.30;;;9.90;99.90;;;;;;5064491;28;20226;-74
2023/01/05 06:11:42;;;;;;;5.73;1.10;;;9.90;99.90;;;;;;5039051;28;20273;-73
2023/01/05 06:14:08;;;;;;;3.10;1.30;;;9.90;99.90;;;;;;5050755;28;20248;-73
2023/01/05 06:16:33;;;;;;;3.60;1.30;;;9.90;99.90;;;;;;5068432;28;20222;-74
2023/01/05 06:18:59;;;;;;;2.90;0.97;;;9.80;99.90;;;;;;5072740;28;20233;-73
2023/01/05 06:21:25;;;;;;;4.03;1.30;;;9.90;99.90;;;;;;5061405;28;20260;-74
2023/01/05 06:23:50;;;;;;;6.60;1.40;;;9.90;99.90;;;;;;5050250;28;20228;-73
2023/01/05 06:26:16;;;;;;;3.60;1.20;;;9.90;99.90;;;;;;5050883;28;20220;-72
2023/01/05 06:28:42;;;;;;;1.80;1.10;;;9.80;99.90;;;;;;5083158;28;20222;-73
2023/01/05 06:31:07;;;;;;;3.60;1.00;;;9.80;99.90;;;;;;5065697;28;20231;-73
2023/01/05 06:33:33;;;;;;;5.23;1.73;;;9.80;99.90;;;;;;5035122;28;20232;-73
2023/01/05 06:35:59;;;;;;;4.33;1.27;;;9.80;99.90;;;;;;5041016;28;20222;-74
2023/01/05 06:38:25;;;;;;;6.00;1.40;;;9.80;99.90;;;;;;5054427;28;20218;-74
2023/01/05 06:40:50;;;;;;;3.93;1.00;;;9.80;99.90;;;;;;5051622;28;20302;-73
2023/01/05 06:43:16;;;;;;;2.07;1.30;;;9.80;99.90;;;;;;5064507;28;20542;-73
2023/01/05 06:45:42;;;;;;;8.23;1.57;;;9.80;99.90;;;;;;5063376;28;20232;-73
2023/01/05 06:48:08;;;;;;;8.17;1.20;;;9.80;99.90;;;;;;5049542;28;20264;-73
2023/01/05 06:50:34;;;;;;;5.37;1.57;;;9.80;99.90;;;;;;5048259;28;20462;-73
2023/01/05 06:53:00;;;;;;;7.27;2.20;;;9.80;99.90;;;;;;5072092;28;20215;-73
2023/01/05 06:55:26;;;;;;;5.47;2.30;;;9.70;99.90;;;;;;5040087;28;20458;-73
2023/01/05 06:57:51;;;;;;;3.73;1.70;;;9.70;99.90;;;;;;5052058;28;20738;-73
2023/01/05 07:00:17;;;;;;;7.70;1.20;;;9.70;99.90;;;;;;5041626;28;20220;-73
2023/01/05 07:02:43;;;;;;;4.50;1.50;;;9.70;99.90;;;;;;5063026;28;20238;-73
2023/01/05 07:05:09;;;;;;;4.53;1.70;;;9.70;99.90;;;;;;5048067;28;20555;-73
2023/01/05 07:07:35;;;;;;;3.80;0.80;;;9.60;99.90;;;;;;5064187;28;20245;-73
2023/01/05 07:10:01;;;;;;;5.93;1.43;;;9.60;99.90;;;;;;5091407;28;20215;-73
2023/01/05 07:12:26;;;;;;;5.77;1.20;;;9.60;99.90;;;;;;5060547;28;20223;-73
2023/01/05 07:14:52;;;;;;;2.40;1.07;;;9.50;99.90;;;;;;5054623;28;20505;-73
2023/01/05 07:17:18;;;;;;;3.80;1.13;;;9.50;99.90;;;;;;5054415;28;20702;-75
2023/01/05 07:19:43;;;;;;;3.93;1.10;;;9.50;99.90;;;;;;5047613;28;20234;-73
2023/01/05 07:22:09;;;;;;;6.57;1.40;;;9.40;99.90;;;;;;5086137;28;20229;-73
2023/01/05 07:24:35;;;;;;;3.60;1.30;;;9.40;99.90;;;;;;5091190;28;20230;-73
2023/01/05 07:27:01;;;;;;;12.03;1.00;;;9.40;99.90;;;;;;5063036;28;20272;-75
2023/01/05 07:29:26;;;;;;;6.03;1.27;;;9.40;99.90;;;;;;5052155;28;20715;-73
2023/01/05 07:31:52;;;;;;;10.13;1.20;;;9.40;99.90;;;;;;5036186;28;20464;-73
2023/01/05 07:34:19;;;;;;;5.90;1.80;;;9.40;99.90;;;;;;5039385;28;20738;-73
2023/01/05 07:36:45;;;;;;;3.70;1.10;;;9.50;99.90;;;;;;5043136;28;20239;-74
2023/01/05 07:39:11;;;;;;;4.03;1.20;;;9.50;99.90;;;;;;5058933;28;20520;-73
2023/01/05 07:41:36;;;;;;;3.93;1.10;;;9.50;99.90;;;;;;5054568;28;20270;-74
2023/01/05 07:44:03;;;;;;;3.73;1.07;;;9.50;99.90;;;;;;5050621;28;20715;-73
2023/01/05 07:46:29;;;;;;;5.23;1.37;;;9.50;99.90;;;;;;5060461;28;20510;-73
2023/01/05 07:48:55;;;;;;;6.83;2.13;;;9.50;99.90;;;;;;5037940;28;20307;-73
2023/01/05 07:51:21;;;;;;;9.57;1.60;;;9.50;99.90;;;;;;5064872;28;20224;-73
2023/01/05 07:53:47;;;;;;;5.13;1.70;;;9.50;99.90;;;;;;5047781;28;20713;-73
2023/01/05 07:56:13;;;;;;;5.60;1.13;;;9.50;99.90;;;;;;5034097;28;20307;-73
2023/01/05 07:58:39;;;;;;;3.00;1.20;;;9.50;99.90;;;;;;5051933;28;20226;-73
2023/01/05 08:01:07;;;;;;;1.83;1.30;;;9.50;99.90;;;;;;5039148;28;20448;-73
2023/01/05 08:03:33;;;;;;;2.00;0.80;;;9.60;99.90;;;;;;5049219;28;20478;-73
2023/01/05 08:06:10;;;;;;;5.33;1.37;;;9.60;99.90;;;;;;5049810;28;20966;-73
2023/01/05 08:08:35;;;;;;;2.40;1.40;;;9.60;99.90;;;;;;5039054;28;20466;-73
2023/01/05 08:11:06;;;;;;;1.27;1.00;;;9.60;99.90;;;;;;5039627;28;20529;-73
2023/01/05 08:16:17;;;;;;;4.03;1.70;;;9.60;99.90;;;;;;5054780;28;20467;-72
2023/01/05 08:18:42;;;;;;;6.37;1.17;;;9.60;99.90;;;;;;5062239;28;20456;-74
2023/01/05 08:21:08;;;;;;;6.13;1.87;;;9.60;99.90;;;;;;5074591;28;20215;-74
2023/01/05 08:23:35;;;;;;;3.10;1.27;;;9.60;99.90;;;;;;5064829;28;20594;-73
2023/01/05 08:26:06;;;;;;;3.40;1.27;;;9.60;99.90;;;;;;5050160;28;20227;-73
2023/01/05 08:28:33;;;;;;;3.70;1.53;;;9.60;99.90;;;;;;5052725;28;20969;-74
2023/01/05 08:31:07;;;;;;;3.03;1.60;;;9.60;99.90;;;;;;5066894;28;20460;-73
2023/01/05 08:33:33;;;;;;;2.10;1.67;;;9.60;99.90;;;;;;5040415;28;20478;-74
2023/01/05 08:35:58;;;;;;;6.40;2.00;;;9.60;99.90;;;;;;5060722;28;20449;-74
2023/01/05 08:38:24;;;;;;;4.43;1.20;;;9.60;99.90;;;;;;5085762;28;20308;-73
2023/01/05 08:40:50;;;;;;;8.07;3.40;;;9.60;99.90;;;;;;5067057;28;20208;-73
2023/01/05 08:43:16;;;;;;;7.73;3.20;;;9.70;99.90;;;;;;5040746;28;20811;-73
2023/01/05 08:45:42;;;;;;;9.00;3.03;;;9.70;99.90;;;;;;5069453;28;20268;-73
2023/01/05 08:48:09;;;;;;;6.77;1.90;;;9.70;99.90;;;;;;5087741;28;20219;-73
2023/01/05 08:50:37;;;;;;;6.30;1.93;;;9.70;99.90;;;;;;5055923;28;20879;-74
2023/01/05 08:53:03;;;;;;;10.63;2.10;;;9.70;99.90;;;;;;5061187;28;20449;-73
2023/01/05 08:55:28;;;;;;;12.40;1.80;;;9.70;99.90;;;;;;5060324;28;20456;-73
2023/01/05 08:57:55;;;;;;;3.13;1.27;;;9.80;99.90;;;;;;5068382;28;20207;-74
2023/01/05 09:00:22;;;;;;;5.07;2.70;;;9.80;99.90;;;;;;5055858;28;20277;-74
2023/01/05 09:02:48;;;;;;;3.53;3.17;;;9.80;99.90;;;;;;5062194;28;20506;-74
2023/01/05 09:05:14;;;;;;;9.77;1.90;;;9.80;99.90;;;;;;5059277;28;20446;-74
2023/01/05 09:07:39;;;;;;;1.80;1.37;;;9.80;99.90;;;;;;5033499;28;20515;-74
2023/01/05 09:10:06;;;;;;;9.87;2.33;;;9.80;99.90;;;;;;5042852;28;20500;-73
2023/01/05 09:12:36;;;;;;;4.93;1.50;;;9.80;99.90;;;;;;5041410;28;20243;-74
2023/01/05 09:15:02;;;;;;;7.03;1.90;;;9.80;99.90;;;;;;5034812;28;20465;-74
2023/01/05 09:17:28;;;;;;;3.37;1.53;;;9.80;99.90;;;;;;5040028;28;20974;-73
2023/01/05 09:19:53;;;;;;;2.83;2.60;;;9.80;99.90;;;;;;5064259;28;20477;-73
2023/01/05 09:22:20;;;;;;;8.07;3.27;;;9.90;99.90;;;;;;5048149;28;20446;-73
2023/01/05 09:24:46;;;;;;;9.53;2.33;;;9.80;99.90;;;;;;5035406;28;20345;-73
2023/01/05 09:27:11;;;;;;;7.73;2.60;;;9.90;99.90;;;;;;5044521;28;20532;-73
2023/01/05 09:29:37;;;;;;;5.30;1.43;;;9.90;99.90;;;;;;5052739;28;20226;-74
2023/01/05 09:32:04;;;;;;;2.00;1.43;;;9.90;99.90;;;;;;5060628;28;20207;-73
2023/01/05 09:34:30;;;;;;;4.33;2.07;;;9.90;99.90;;;;;;5057406;28;20608;-73
2023/01/05 09:36:56;;;;;;;11.30;2.30;;;9.90;99.90;;;;;;5031223;28;20447;-74
2023/01/05 09:39:21;;;;;;;12.57;2.10;;;9.90;99.90;;;;;;5017566;28;20204;-74
2023/01/05 09:41:54;;;;;;;5.67;1.63;;;10.00;99.90;;;;;;5056633;28;20214;-74
2023/01/05 09:44:22;;;;;;;6.43;1.37;;;10.00;99.90;;;;;;5042131;28;20216;-73
2023/01/05 09:46:49;;;;;;;7.47;1.67;;;10.00;99.90;;;;;;5058136;28;20477;-74
2023/01/05 09:49:20;;;;;;;4.17;1.40;;;10.10;99.90;;;;;;5052397;28;20459;-73
2023/01/05 09:51:48;;;;;;;7.73;1.90;;;10.10;99.90;;;;;;5043648;28;20592;-73
2023/01/05 09:54:16;;;;;;;5.57;1.30;;;10.20;99.90;;;;;;5046015;28;20456;-73
2023/01/05 09:56:47;;;;;;;8.63;1.70;;;10.20;99.90;;;;;;5038554;28;20525;-73
2023/01/05 09:59:21;;;;;;;4.70;1.80;;;10.20;99.90;;;;;;5042272;28;20480;-74
2023/01/05 10:01:49;;;;;;;6.07;1.80;;;10.20;99.90;;;;;;5048856;28;20533;-74
2023/01/05 10:04:19;;;;;;;6.97;1.70;;;10.20;99.90;;;;;;5049728;28;20511;-73
2023/01/05 10:06:55;;;;;;;4.33;1.80;;;10.30;99.90;;;;;;5032562;28;21036;-74
2023/01/05 10:09:26;;;;;;;10.10;2.40;;;10.30;99.90;;;;;;5034952;28;20965;-73
2023/01/05 10:14:57;;;;;;;34.53;18.43;;;10.30;99.90;;;;;;5060591;28;20471;-72
2023/01/05 10:17:25;;;;;;;40.80;18.57;;;10.40;99.90;;;;;;5075640;28;20470;-73
2023/01/05 10:19:51;;;;;;;77.83;36.70;;;10.40;99.90;;;;;;5052548;28;20472;-73
2023/01/05 10:22:43;;;;;;;44.93;18.73;;;10.40;99.90;;;;;;5048123;28;20979;-73
2023/01/05 10:25:34;;;;;;;33.50;12.43;;;10.40;99.90;;;;;;5040919;28;20208;-73
2023/01/05 10:28:20;;;;;;;11.97;5.93;;;10.50;99.90;;;;;;5058181;28;20546;-74
2023/01/05 10:31:01;;;;;;;8.90;4.17;;;10.50;99.90;;;;;;5071446;28;20459;-72
2023/01/05 10:33:48;;;;;;;7.53;3.50;;;10.50;99.90;;;;;;5055116;28;20476;-73
2023/01/05 10:36:27;;;;;;;7.13;2.80;;;10.60;99.90;;;;;;5053169;28;20474;-73
2023/01/05 10:38:58;;;;;;;5.87;1.83;;;10.60;99.90;;;;;;5047893;28;20530;-74
2023/01/05 10:41:28;;;;;;;6.50;3.00;;;10.60;99.90;;;;;;5050345;28;20450;-73
2023/01/05 10:44:04;;;;;;;10.57;2.97;;;10.60;99.90;;;;;;5049129;28;20550;-74
2023/01/05 10:46:30;;;;;;;11.70;2.10;;;10.70;99.90;;;;;;5050403;28;20461;-72
2023/01/05 10:48:56;;;;;;;6.63;2.70;;;10.70;99.90;;;;;;5037724;28;20450;-73
2023/01/05 10:51:22;;;;;;;10.03;2.77;;;10.80;99.90;;;;;;5048148;28;20248;-73
2023/01/05 10:53:48;;;;;;;7.03;1.50;;;10.80;99.90;;;;;;5029774;28;20475;-73
2023/01/05 10:56:27;;;;;;;5.30;1.97;;;10.80;99.90;;;;;;5042936;28;20288;-73
2023/01/05 10:59:10;;;;;;;7.30;2.23;;;10.80;99.90;;;;;;5048517;28;20225;-72
2023/01/05 11:01:41;;;;;;;9.77;3.10;;;10.90;99.90;;;;;;5054741;28;20562;-74
2023/01/05 11:04:11;;;;;;;5.73;1.47;;;10.90;99.90;;;;;;5048895;28;20462;-74
2023/01/05 11:06:37;;;;;;;5.60;1.80;;;10.90;99.90;;;;;;5028609;28;20466;-73
2023/01/05 11:09:18;;;;;;;10.60;1.93;;;10.90;99.90;;;;;;5053844;28;20490;-72
2023/01/05 11:11:53;;;;;;;6.43;1.57;;;10.90;99.90;;;;;;5052200;28;20446;-72
2023/01/05 11:14:20;;;;;;;10.27;2.23;;;10.90;99.90;;;;;;5027485;28;20465;-73
2023/01/05 11:16:52;;;;;;;3.73;1.90;;;10.90;99.90;;;;;;5045108;28;20818;-74
2023/01/05 11:19:22;;;;;;;4.87;2.33;;;10.90;99.90;;;;;;5050095;28;20553;-74
2023/01/05 11:21:48;;;;;;;9.20;2.53;;;11.00;99.90;;;;;;5038993;28;20469;-74
2023/01/05 11:24:34;;;;;;;10.50;2.73;;;11.00;99.90;;;;;;5060799;28;20453;-73
2023/01/05 11:27:12;;;;;;;9.70;3.80;;;11.00;99.90;;;;;;5044684;28;20218;-73
2023/01/05 11:29:38;;;;;;;16.90;7.00;;;11.00;99.90;;;;;;5071338;28;20504;-73
2023/01/05 11:32:09;;;;;;;11.70;6.40;;;11.00;99.90;;;;;;5052758;28;20490;-72
2023/01/05 11:34:34;;;;;;;40.37;21.70;;;11.00;99.90;;;;;;5052733;28;20236;-74
2023/01/05 11:37:01;;;;;;;25.20;13.33;;;11.10;99.90;;;;;;5037092;28;20462;-73
2023/01/05 11:39:34;;;;;;;10.53;4.30;;;11.10;99.90;;;;;;5050071;28;20598;-73
2023/01/05 11:42:10;;;;;;;12.30;6.93;;;11.10;99.90;;;;;;5047607;28;20456;-73
2023/01/05 11:44:36;;;;;;;8.57;4.67;;;11.10;99.90;;;;;;5041832;28;20546;-72
2023/01/05 11:47:05;;;;;;;10.73;4.90;;;11.10;99.90;;;;;;5038070;28;20455;-73
2023/01/05 11:49:30;;;;;;;5.73;2.63;;;11.10;99.90;;;;;;5049932;28;20512;-73
2023/01/05 11:51:56;;;;;;;5.93;1.83;;;11.10;99.90;;;;;;5047775;28;20473;-73
2023/01/05 11:54:40;;;;;;;8.13;2.20;;;11.10;99.90;;;;;;5061225;28;20222;-74
2023/01/05 11:57:17;;;;;;;8.70;2.83;;;11.20;99.90;;;;;;5070384;28;20220;-73
2023/01/05 11:59:45;;;;;;;6.33;2.10;;;11.20;99.90;;;;;;5056489;28;20462;-73
2023/01/05 12:02:38;;;;;;;8.47;2.40;;;11.20;99.90;;;;;;5042170;28;20458;-74
2023/01/05 12:05:07;;;;;;;9.00;2.50;;;11.20;99.90;;;;;;5054602;28;20469;-74
2023/01/05 12:07:41;;;;;;;9.60;2.00;;;11.20;99.90;;;;;;5049306;28;20873;-73
2023/01/05 12:10:47;;;;;;;9.40;3.93;;;11.20;99.90;;;;;;5050858;28;20976;-73
2023/01/05 12:13:19;;;;;;;13.30;3.40;;;11.10;99.90;;;;;;5047705;28;20494;-73
2023/01/05 12:16:33;;;;;;;9.30;2.47;;;11.20;99.90;;;;;;5054984;28;20454;-71
2023/01/05 12:19:19;;;;;;;10.40;2.23;;;11.20;99.90;;;;;;5008589;28;20449;-71
2023/01/05 12:22:11;;;;;;;4.87;1.93;;;11.20;99.90;;;;;;5037329;28;21155;-71
2023/01/05 12:24:48;;;;;;;9.50;2.03;;;11.20;99.90;;;;;;5040144;28;20463;-73
2023/01/05 12:27:33;;;;;;;7.33;2.20;;;11.20;99.90;;;;;;5083220;28;20449;-72
2023/01/05 12:30:20;;;;;;;6.20;2.67;;;11.20;99.90;;;;;;5058988;28;20465;-72
2023/01/05 12:33:07;;;;;;;10.00;2.10;;;11.30;99.90;;;;;;5058413;28;20468;-72
2023/01/05 12:35:56;;;;;;;11.70;2.40;;;11.30;99.90;;;;;;5054231;28;20526;-72
2023/01/05 12:38:36;;;;;;;5.13;2.07;;;11.40;99.90;;;;;;5058965;28;20503;-70
2023/01/05 12:41:08;;;;;;;4.37;1.90;;;11.50;99.90;;;;;;5037725;28;20445;-72
2023/01/05 12:44:18;;;;;;;6.40;2.17;;;11.50;99.90;;;;;;5049389;28;20474;-72
2023/01/05 12:47:17;;;;;;;8.10;3.70;;;11.40;99.90;;;;;;5006892;28;20458;-73
2023/01/05 12:50:11;;;;;;;3.60;1.90;;;11.40;99.90;;;;;;5034974;28;20469;-73
2023/01/05 12:52:49;;;;;;;1.67;1.17;;;11.40;99.90;;;;;;5056486;28;20454;-73
2023/01/05 12:55:23;;;;;;;9.23;2.00;;;11.30;99.90;;;;;;5009106;28;20604;-73
2023/01/05 12:57:57;;;;;;;5.00;1.40;;;11.20;99.90;;;;;;5044486;28;20464;-73
2023/01/05 13:00:27;;;;;;;2.77;1.53;;;11.10;99.90;;;;;;5045765;28;20462;-73
2023/01/05 13:03:21;;;;;;;8.20;1.87;;;11.10;99.90;;;;;;5044520;28;21001;-73
2023/01/05 13:06:10;;;;;;;8.80;1.63;;;11.00;99.90;;;;;;5029548;28;20505;-72
2023/01/05 13:08:41;;;;;;;3.57;2.17;;;11.00;99.90;;;;;;5058891;28;20514;-73
2023/01/05 13:11:26;;;;;;;7.40;2.23;;;10.90;99.90;;;;;;5051620;28;20447;-72
2023/01/05 13:14:01;;;;;;;5.67;1.63;;;10.90;99.90;;;;;;5054480;28;20473;-73
2023/01/05 13:16:35;;;;;;;8.70;1.97;;;10.80;99.90;;;;;;5023623;28;20474;-73
2023/01/05 13:19:12;;;;;;;5.90;1.97;;;10.80;99.90;;;;;;5040666;28;20450;-74
2023/01/05 13:21:41;;;;;;;2.00;1.73;;;10.80;99.90;;;;;;5026267;28;20822;-73
2023/01/05 13:24:33;;;;;;;3.33;1.77;;;10.80;99.90;;;;;;5047636;28;20533;-73
2023/01/05 13:27:01;;;;;;;6.43;2.00;;;10.80;99.90;;;;;;5041241;28;20486;-73
2023/01/05 13:29:31;;;;;;;8.40;2.23;;;10.70;99.90;;;;;;5038779;28;20476;-73
2023/01/05 13:32:03;;;;;;;8.80;2.10;;;10.70;99.90;;;;;;5051711;28;20462;-73
2023/01/05 13:34:38;;;;;;;12.47;5.83;;;10.70;99.90;;;;;;5032736;28;20465;-73
2023/01/05 13:37:40;;;;;;;10.17;4.90;;;10.70;99.90;;;;;;5033521;28;20458;-73
2023/01/05 13:41:04;;;;;;;6.13;2.73;;;10.70;99.90;;;;;;5054902;28;20463;-73
2023/01/05 13:43:48;;;;;;;7.60;3.73;;;10.80;99.90;;;;;;4996869;28;20454;-73